Portland Corners, Illinois
Current Conditions -  °F | °C
As of 8:15 AM on Monday 24 Nov 2014 (Local Time) from KCWI Reporting Station
Overcast Overcast  
Wind Chill: 15°   Ceiling: 600
Heat Index: 30°   Visibility: 0.75mi
Dew Point: 27°   Wind: 29mph
Humidity: 86%   Direction: 280°W
Pressure: 29.3"   Gusts: 35mph
Location:  41.5909°N, 89.9498°W
Report Text: KCWI 241415Z AUTO 28025G30KT 3/4SM OVC006 M01/M03 A2930 RMK AO1
Loading
Personal Weather Stations






























Interactive Weather Map New forecast layout! Learn more

10-Day Weather Forecast

Advertisements
Track Severe Weather on mobile